Edison, NJ (08820)

10:34 PM EST on December 04, 2016 (GMT -0500)
North Edison (Inman Grove Area) | | Change Station

Elev 121 ft 40.59 °N, 74.36 °W | Updated 4 minutes ago

Clear
Clear
40.5 °F
Feels Like 40 °F
N
1.0
Wind Variable Wind from ESE
Gusts 9.0 mph

Today
High -- | Low -- °F
--% Chance of Precip.
Yesterday
High -- | Low -- °F
Precip. -- in
Pressure 30.15 in
Visibility 10.0 miles
Clouds Clear
Windchill 40 °F
Dew Point 28 °F
Humidity 60%
Rainfall 0.00 in
Snow Depth Not available.
7:05 AM 4:30 PM
Waxing Crescent, 28% visible
METAR KLDJ 050315Z AUTO 00000KT 10SM CLR 05/M05 A3015 RMK AO2 T00521051
Pressure 30.15 in
Visibility 10.0 miles
Clouds Clear
Windchill 40 °F
Dew Point 28 °F
Humidity 60%
Rainfall 0.00 in
Snow Depth Not available.
7:05 AM 4:30 PM
Waxing Crescent, 28% visible
METAR KLDJ 050315Z AUTO 00000KT 10SM CLR 05/M05 A3015 RMK AO2 T00521051

10-Day Weather Forecast

Almanac

Astronomy

Dec. 04, 2016 Rise Set
Actual Time
Civil Twilight
Nautical Twilight
Astronomical Twilight
Moon
Length of Visible Light
Length of Day
Tomorrow will be .
, % of the Moon is Illuminated

Today's Extremes

State Highs State Lows

Community

WunderPhotos

Upload Photos

1,955,744 photos uploaded!

WunderBlog® & News

Nearby

Air Quality

  Air Quality AQ Index Pollutant
Not available.

Snow Depth

Station Depth Elevation

Earthquake Activity

City Distance Mag. Time & Date
Minimum magnitude displayed is 2.5.

Coastal Water Temperatures

Place Temperature

Stations

Nearby Weather Stations

Station Location Temp. Windchill Dew Point Humidity Wind Precip. Elev Updated Type
                   

Watches & Warnings

There are currently no watches in effect.